Helmi — SA7925 — position and weather

sailwx.info

Track history (hours):
 
Tides and Currents Weather Stations Pressure Air Temp Water Temp Dewpoint Dewpoint Depression Visibility Wind Speed Wind Dir Waves Ship Positions

Helmi

Last reported at 2017-Nov-05 22:04 UTC. Time now 2017-Nov-20 09:52 UTC.
Position N 28°08' W 015°26'.
Warning: this ship's position is 14 days out of date.

Length 12 m.

Type: Pleasure craft. MMSI: 265614710.

Date/timePositionNaut miles runAvg speedWind from/ knotsBaromVisibWave heightAir tempDewpointWater temp
2017-Nov-05 22:04N 28°08' W 015°26'0 0.0
2017-Nov-05 21:52N 28°08' W 015°26'0 0.0
2017-Nov-05 21:22N 28°08' W 015°26'0 0.0
2017-Nov-05 20:52N 28°08' W 015°26'0 0.0
2017-Nov-05 20:22N 28°08' W 015°26'0 0.0
2017-Nov-05 19:55N 28°08' W 015°26'0 0.0
2017-Nov-05 19:25N 28°08' W 015°26'0 0.0
2017-Nov-05 18:55N 28°08' W 015°26'0 0.0
2017-Nov-05 18:25N 28°08' W 015°26'0 0.0
2017-Nov-05 17:55N 28°08' W 015°26'0 0.0
2017-Nov-05 17:25N 28°08' W 015°26'0 0.6
2017-Nov-05 17:00N 28°08' W 015°25'1 1.3
2017-Nov-05 16:30N 28°07' W 015°25'3 6.5
2017-Nov-05 16:00N 28°05' W 015°22'3 6.2
2017-Nov-05 15:30N 28°03' W 015°20'3 5.8
2017-Nov-05 15:00N 28°00' W 015°18'2 3.5
2017-Nov-05 14:30N 28°02' W 015°19'3 5.2
2017-Nov-05 14:00N 28°04' W 015°21'2 4.8
2017-Nov-05 13:30N 28°05' W 015°23'2 3.9
2017-Nov-05 13:00N 28°07' W 015°25'0 1.0
2017-Nov-05 12:30N 28°07' W 015°25'1 1.6
2017-Nov-05 11:58N 28°08' W 015°26'0 0.0
2017-Nov-05 11:28N 28°08' W 015°26'0 0.0
2017-Nov-05 10:58N 28°08' W 015°26'0 0.0
2017-Nov-05 10:28N 28°08' W 015°26'0 0.0
2017-Nov-05 09:46N 28°08' W 015°26'0 0.0
2017-Nov-05 09:28N 28°08' W 015°26'  
2017-Oct-29 10:43N 28°08' W 015°26'0 0.0
2017-Oct-29 10:07N 28°08' W 015°26'0 0.0
2017-Oct-29 09:52N 28°08' W 015°26'0 0.0
2017-Oct-27 08:12N 28°08' W 015°26'  
Track history (hours):
 
Tides and Currents Weather Stations Pressure Air Temp Water Temp Dewpoint Dewpoint Depression Visibility Wind Speed Wind Dir Waves Ship Positions

Helmi

Last reported at 2017-Nov-05 22:04 UTC. Time now 2017-Nov-20 09:52 UTC.
Position N 28°08' W 015°26'.
Warning: this ship's position is 14 days out of date.

Length 12 m.

Type: Pleasure craft. MMSI: 265614710.

Date/timePositionNaut miles runAvg speedWind from/ knotsBaromVisibWave heightAir tempDewpointWater temp
2017-Nov-05 22:04N 28°08' W 015°26'0 0.0
2017-Nov-05 21:52N 28°08' W 015°26'0 0.0
2017-Nov-05 21:22N 28°08' W 015°26'0 0.0
2017-Nov-05 20:52N 28°08' W 015°26'0 0.0
2017-Nov-05 20:22N 28°08' W 015°26'0 0.0
2017-Nov-05 19:55N 28°08' W 015°26'0 0.0
2017-Nov-05 19:25N 28°08' W 015°26'0 0.0
2017-Nov-05 18:55N 28°08' W 015°26'0 0.0
2017-Nov-05 18:25N 28°08' W 015°26'0 0.0
2017-Nov-05 17:55N 28°08' W 015°26'0 0.0
2017-Nov-05 17:25N 28°08' W 015°26'0 0.6
2017-Nov-05 17:00N 28°08' W 015°25'1 1.3
2017-Nov-05 16:30N 28°07' W 015°25'3 6.5
2017-Nov-05 16:00N 28°05' W 015°22'3 6.2
2017-Nov-05 15:30N 28°03' W 015°20'3 5.8
2017-Nov-05 15:00N 28°00' W 015°18'2 3.5
2017-Nov-05 14:30N 28°02' W 015°19'3 5.2
2017-Nov-05 14:00N 28°04' W 015°21'2 4.8
2017-Nov-05 13:30N 28°05' W 015°23'2 3.9
2017-Nov-05 13:00N 28°07' W 015°25'0 1.0
2017-Nov-05 12:30N 28°07' W 015°25'1 1.6
2017-Nov-05 11:58N 28°08' W 015°26'0 0.0
2017-Nov-05 11:28N 28°08' W 015°26'0 0.0
2017-Nov-05 10:58N 28°08' W 015°26'0 0.0
2017-Nov-05 10:28N 28°08' W 015°26'0 0.0
2017-Nov-05 09:46N 28°08' W 015°26'0 0.0
2017-Nov-05 09:28N 28°08' W 015°26'  
2017-Oct-29 10:43N 28°08' W 015°26'0 0.0
2017-Oct-29 10:07N 28°08' W 015°26'0 0.0
2017-Oct-29 09:52N 28°08' W 015°26'0 0.0
2017-Oct-27 08:12N 28°08' W 015°26'  

Dump ship's entire track history